KEFD/EFD METAR and TAF weather

Enter ICAO airport designator
Station Type Date Time Source
KEFD METAR 2022/12/05 12:54 UTC NOAA

KEFD 051254Z 15007KT 1/8SM BR OVC002 20/20 A2999


Station Type Date Time Source
KEFD Decoded METAR 2022/12/05 12:54 UTC NOAA

Houston / Ellington, TX, United States (KEFD) 29-36N 095-10W
Dec 05, 2022 - 07:54 AM EST / 2022.12.05 1254 UTC
Wind: from the SSE (150 degrees) at 8 MPH (7 KT):0
Visibility: 1/8 mile(s):0
Sky conditions: overcast
Weather: mist
Temperature: 68 F (20 C)
Dew Point: 68 F (20 C)
Relative Humidity: 100%
Pressure (altimeter): 29.99 in. Hg (1015 hPa)
ob: KEFD 051254Z 15007KT 1/8SM BR OVC002 20/20 A2999
cycle: 13

Station Type Date Time Source
KEFD TAF 2022/12/05 12:13 UTC NOAA

TAF KEFD 051200Z 0512/0618 VRB06KT 0400 FG OVC002 QNH2998INS
BECMG 0513/0514 VRB06KT 4800 BR BKN006 QNH2995INS
BECMG 0518/0519 22010G15KT 9999 NSW BKN015 QNH2992INS
BECMG 0519/0520 22015G20KT 9999 SCT030 QNH2990INS
BECMG 0522/0523 19009KT 9999 SCT015 QNH2990INS TX25/0521Z TN20/0512Z

Example: see airport list